Azalea, OR (97410)

2:10 PM PST on December 19, 2014 (GMT -0800)
wolf creek | Change Station
CLOSE
Current Station
Personal Weather Station
Location: Wolf Creek, OR
Elevation: 1503 ft
Nearby Weather Stations
Active Advisory: Areal Flood Watch

Elev 1503 ft 42.71 °N, 123.37 °W | Updated 8 seconds ago

Overcast
Overcast
49.8 °F
Feels Like 50 °F
N
1.8
Wind Variable Wind from ESE
Gusts 3.6 mph

Today
High -- | Low -- °F
--% Chance of Precip.
Yesterday
High -- | Low -- °F
Precip. -- in
7:39 AM 4:41 PM
Waning Crescent, 6% visible
Pressure 30.03 in
Visibility 7.0 miles
Clouds Few 4300 ft
Overcast 5500 ft
Windchill 50 °F
Dew Point 45 °F
Humidity 83%
Rainfall 0.32 in
Snow Depth Not available.
UV 0 out of 12
Pollen .50 out of 12
Air Quality Not available.
Flu Activity Not available.
METAR KRBG 192153Z AUTO 16003KT 7SM -RA FEW043 OVC055 12/08 A3003 RMK AO2 RAB27 SLP169 P0000 T01170078

More Conditions Fewer Conditions

Pressure 30.03 in
Visibility 7.0 miles
Clouds Few 4300 ft
Overcast 5500 ft
Windchill 50 °F
Dew Point 45 °F
Humidity 83%
Rainfall 0.32 in
Snow Depth Not available.
UV 0 out of 12
Pollen .50 out of 12
Air Quality Not available.
Flu Activity Not available.
METAR KRBG 192153Z AUTO 16003KT 7SM -RA FEW043 OVC055 12/08 A3003 RMK AO2 RAB27 SLP169 P0000 T01170078

More Conditions Fewer Conditions

10-Day Weather Forecast

Almanac

Astronomy

Dec. 19, 2014 Rise Set
Actual Time
Civil Twilight
Nautical Twilight
Astronomical Twilight
Moon
Length of Visible Light
Length of Day
Tomorrow will be .
, % of the Moon is Illuminated

Today's Extremes

State Highs State Lows

Community

WunderPhotos

Upload Photos

1,779,063 photos uploaded!

WunderBlogs® & News

Nearby

Air Quality

  Air Quality AQ Index Pollutant
Not available.

Snow Depth

Station Depth Elevation

Earthquake Activity

City Distance Mag. Time & Date
Minimum magnitude displayed is 2.5.

Coastal Water Temperatures

Place Temperature

Nearby Weather Stations